createdAt,value
2022-09-25T00:01:16.021Z,49.41
2022-09-25T00:03:43.940Z,49.13
2022-09-25T00:06:26.041Z,49.19
2022-09-25T00:08:54.661Z,49.03
2022-09-25T00:11:33.159Z,48.80
2022-09-25T00:14:02.183Z,49.20
2022-09-25T00:16:31.957Z,49.64
2022-09-25T00:19:18.603Z,49.50
2022-09-25T00:21:47.197Z,48.99
2022-09-25T00:24:15.419Z,49.16
2022-09-25T00:26:43.773Z,49.91
2022-09-25T00:29:21.036Z,50.01
2022-09-25T00:31:48.331Z,49.95
2022-09-25T00:34:18.135Z,50.29
2022-09-25T00:36:45.453Z,50.62
2022-09-25T00:39:12.829Z,50.83
2022-09-25T00:41:40.325Z,50.83
2022-09-25T00:44:46.065Z,50.95
2022-09-25T00:47:18.089Z,50.03
2022-09-25T00:49:46.395Z,50.37
2022-09-25T00:52:14.607Z,50.69
2022-09-25T00:54:49.339Z,50.68
2022-09-25T00:57:22.307Z,49.78
2022-09-25T00:59:57.727Z,50.62
2022-09-25T01:02:29.538Z,50.54
2022-09-25T01:05:05.097Z,50.42
2022-09-25T01:07:37.103Z,50.11
2022-09-25T01:10:08.404Z,49.65
2022-09-25T01:12:45.165Z,50.20
2022-09-25T01:15:15.333Z,50.20
2022-09-25T01:18:03.920Z,50.53
2022-09-25T01:20:49.084Z,50.46
2022-09-25T01:23:30.244Z,50.14
2022-09-25T01:26:47.171Z,50.58
2022-09-25T01:29:37.170Z,50.69
2022-09-25T01:32:14.273Z,51.21
2022-09-25T01:35:07.107Z,51.69
2022-09-25T01:37:49.042Z,52.08
2022-09-25T01:40:19.298Z,52.46
2022-09-25T01:42:53.278Z,52.60
2022-09-25T01:45:36.946Z,52.88
2022-09-25T01:48:08.194Z,52.46
2022-09-25T01:50:43.395Z,52.11
2022-09-25T01:53:16.390Z,52.05
2022-09-25T01:55:58.309Z,52.06
2022-09-25T01:58:32.326Z,52.19
2022-09-25T02:01:06.881Z,52.08
2022-09-25T02:03:44.441Z,52.23
2022-09-25T02:06:17.246Z,52.60
2022-09-25T02:09:03.650Z,52.61
2022-09-25T02:11:43.405Z,52.69
2022-09-25T02:14:46.843Z,52.52
2022-09-25T02:17:43.692Z,52.81
2022-09-25T02:20:29.430Z,52.17
2022-09-25T02:23:13.991Z,52.59
2022-09-25T02:25:46.455Z,52.94
2022-09-25T02:28:13.845Z,53.19
2022-09-25T02:30:41.341Z,52.62
2022-09-25T02:33:09.725Z,52.53
2022-09-25T02:35:38.468Z,52.57
2022-09-25T02:38:08.635Z,53.01
2022-09-25T02:40:48.633Z,52.75
2022-09-25T02:43:29.428Z,53.19
2022-09-25T02:46:21.808Z,53.70
2022-09-25T02:48:57.237Z,53.92
2022-09-25T02:51:40.638Z,53.95
2022-09-25T02:54:21.952Z,54.24
2022-09-25T02:57:06.845Z,54.05
2022-09-25T02:59:40.158Z,54.52
2022-09-25T03:02:10.024Z,54.30
2022-09-25T03:04:39.306Z,54.32
2022-09-25T03:07:07.100Z,54.46
2022-09-25T03:09:38.417Z,54.65
2022-09-25T03:12:06.291Z,55.02
2022-09-25T03:14:33.676Z,54.99
2022-09-25T03:17:04.976Z,55.54
2022-09-25T03:19:32.618Z,55.75
2022-09-25T03:22:00.542Z,57.22
2022-09-25T03:24:27.961Z,57.97
2022-09-25T03:26:55.464Z,59.47
2022-09-25T03:29:23.256Z,60.07
2022-09-25T03:31:52.514Z,59.89
2022-09-25T03:34:20.031Z,60.20
2022-09-25T03:36:47.794Z,60.27
2022-09-25T03:39:18.150Z,60.81
2022-09-25T03:41:46.089Z,61.88
2022-09-25T03:44:13.657Z,62.20
2022-09-25T03:46:41.064Z,62.16
2022-09-25T03:49:10.787Z,61.22
2022-09-25T03:51:39.186Z,61.70
2022-09-25T03:54:06.528Z,61.76
2022-09-25T03:56:34.423Z,61.58
2022-09-25T03:59:01.650Z,61.82
2022-09-25T04:01:29.423Z,61.10
2022-09-25T04:03:57.560Z,60.20
2022-09-25T04:06:26.878Z,60.03
2022-09-25T04:08:54.982Z,58.72
2022-09-25T04:11:24.487Z,57.36
2022-09-25T04:13:52.965Z,56.79
2022-09-25T04:16:23.621Z,56.41
2022-09-25T04:18:51.537Z,56.46
2022-09-25T04:21:24.979Z,56.63
2022-09-25T04:24:10.977Z,55.92
2022-09-25T04:26:39.336Z,55.14
2022-09-25T04:29:07.279Z,55.94
2022-09-25T04:31:36.336Z,56.00
2022-09-25T04:34:04.422Z,56.56
2022-09-25T04:36:31.852Z,56.44
2022-09-25T04:38:59.163Z,56.54
2022-09-25T04:41:29.483Z,56.69
2022-09-25T04:43:59.061Z,57.03
2022-09-25T04:46:26.537Z,55.81
2022-09-25T04:48:53.891Z,56.06
2022-09-25T04:51:22.217Z,56.25
2022-09-25T04:53:49.561Z,56.36
2022-09-25T04:56:17.047Z,56.57
2022-09-25T04:58:49.928Z,56.22
2022-09-25T05:01:19.304Z,56.00
2022-09-25T05:03:53.922Z,56.01
2022-09-25T05:06:23.651Z,55.37
2022-09-25T05:08:51.011Z,55.50
2022-09-25T05:11:19.138Z,55.47
2022-09-25T05:13:50.489Z,55.14
2022-09-25T05:16:17.818Z,55.58
2022-09-25T05:18:45.292Z,55.10
2022-09-25T05:21:12.600Z,55.17
2022-09-25T05:23:39.985Z,54.85
2022-09-25T05:26:07.375Z,54.30
2022-09-25T05:28:34.607Z,54.05
2022-09-25T05:31:04.116Z,53.95
2022-09-25T05:33:35.705Z,53.56
2022-09-25T05:36:05.524Z,53.04
2022-09-25T05:38:34.445Z,52.83
2022-09-25T05:41:06.197Z,52.21
2022-09-25T05:43:35.405Z,51.71
2022-09-25T05:46:02.834Z,51.13
2022-09-25T05:48:30.267Z,51.13
2022-09-25T05:50:58.422Z,50.09
2022-09-25T05:53:27.136Z,49.76
2022-09-25T05:55:58.419Z,49.57
2022-09-25T05:58:27.533Z,48.67
2022-09-25T06:00:55.611Z,48.74
2022-09-25T06:03:23.258Z,48.83
2022-09-25T06:05:50.770Z,48.71
2022-09-25T06:08:18.992Z,48.46
2022-09-25T06:10:54.082Z,48.42
2022-09-25T06:13:22.660Z,48.38
2022-09-25T06:15:53.054Z,47.71
2022-09-25T06:18:22.506Z,47.29
2022-09-25T06:20:50.615Z,46.84
2022-09-25T06:23:19.456Z,46.85
2022-09-25T06:25:46.855Z,46.89
2022-09-25T06:28:14.282Z,46.54
2022-09-25T06:30:41.862Z,46.21
2022-09-25T06:33:13.916Z,46.41
2022-09-25T06:35:43.773Z,45.25
2022-09-25T06:38:12.118Z,45.40
2022-09-25T06:40:41.430Z,44.94
2022-09-25T06:43:16.323Z,44.75
2022-09-25T06:45:44.501Z,44.44
2022-09-25T06:48:18.567Z,44.24
2022-09-25T06:50:52.917Z,44.01
2022-09-25T06:53:22.060Z,43.43
2022-09-25T06:55:50.221Z,43.09
2022-09-25T06:58:21.466Z,42.65
2022-09-25T07:00:50.665Z,42.76
2022-09-25T07:03:36.270Z,42.21
2022-09-25T07:06:06.306Z,41.88
2022-09-25T07:08:33.810Z,41.10
2022-09-25T07:11:02.508Z,41.59
2022-09-25T07:13:33.801Z,41.38
2022-09-25T07:16:06.126Z,41.41
2022-09-25T07:18:34.583Z,41.91
2022-09-25T07:21:07.896Z,41.55
2022-09-25T07:23:36.511Z,41.06
2022-09-25T07:26:22.597Z,41.39
2022-09-25T07:28:55.541Z,40.08
2022-09-25T07:31:26.542Z,39.78
2022-09-25T07:33:55.491Z,40.07
2022-09-25T07:36:22.996Z,38.69
2022-09-25T07:38:52.160Z,38.89
2022-09-25T07:41:22.955Z,38.19
2022-09-25T07:46:46.484Z,38.25
2022-09-25T07:49:14.490Z,38.59
2022-09-25T07:51:41.885Z,38.25
2022-09-25T07:54:09.412Z,37.92
2022-09-25T07:56:38.601Z,38.29
2022-09-25T07:59:06.293Z,38.08
2022-09-25T08:01:33.939Z,38.16
2022-09-25T08:04:02.914Z,37.81
2022-09-25T08:06:30.466Z,37.81
2022-09-25T08:08:59.119Z,37.60
2022-09-25T08:11:28.324Z,36.83
2022-09-25T08:13:55.705Z,36.62
2022-09-25T08:16:23.557Z,36.57
2022-09-25T08:18:51.019Z,35.95
2022-09-25T08:21:22.793Z,36.58
2022-09-25T08:23:56.355Z,36.04
2022-09-25T08:26:23.871Z,35.43
2022-09-25T08:28:52.297Z,36.25
2022-09-25T08:31:20.113Z,34.83
2022-09-25T08:36:16.989Z,34.32
2022-09-25T08:38:44.695Z,33.84
2022-09-25T08:41:21.183Z,33.70
2022-09-25T08:44:06.652Z,34.35
2022-09-25T08:47:21.618Z,33.49
2022-09-25T08:50:09.817Z,33.09
2022-09-25T08:52:41.539Z,32.72
2022-09-25T08:55:18.429Z,32.36
2022-09-25T08:57:48.104Z,32.34
2022-09-25T09:00:22.102Z,29.90
2022-09-25T09:02:57.317Z,29.99
2022-09-25T09:05:27.572Z,28.80
2022-09-25T09:08:00.874Z,29.38
2022-09-25T09:10:37.429Z,26.98
2022-09-25T09:13:26.125Z,27.52
2022-09-25T09:16:01.957Z,27.91
2022-09-25T09:18:43.318Z,28.32
2022-09-25T09:21:34.121Z,27.74
2022-09-25T09:24:26.678Z,27.95
2022-09-25T09:27:00.104Z,27.47
2022-09-25T09:29:52.086Z,26.59
2022-09-25T09:32:45.920Z,26.23
2022-09-25T09:35:57.203Z,26.66
2022-09-25T09:38:35.243Z,24.58
2022-09-25T09:41:33.765Z,23.76
2022-09-25T09:44:35.118Z,26.11
2022-09-25T09:47:26.489Z,25.51
2022-09-25T09:50:19.083Z,25.11
2022-09-25T09:52:52.051Z,24.27
2022-09-25T09:55:28.563Z,24.53
2022-09-25T09:58:05.400Z,24.10
2022-09-25T10:00:33.026Z,25.14
2022-09-25T10:03:11.797Z,25.55
2022-09-25T10:06:13.568Z,25.42
2022-09-25T10:08:42.393Z,26.17
2022-09-25T10:11:17.283Z,25.73
2022-09-25T10:13:47.167Z,25.93
2022-09-25T10:16:25.797Z,26.36
2022-09-25T10:18:53.102Z,26.52
2022-09-25T10:21:30.575Z,26.43
2022-09-25T10:23:59.625Z,26.83
2022-09-25T10:26:33.590Z,27.05
2022-09-25T10:29:03.658Z,26.60
2022-09-25T10:31:34.794Z,26.74
2022-09-25T10:34:07.404Z,25.88
2022-09-25T10:36:51.504Z,26.22
2022-09-25T10:39:45.743Z,26.24
2022-09-25T10:43:02.920Z,26.56
2022-09-25T10:45:33.613Z,26.18
2022-09-25T10:48:20.554Z,27.11
2022-09-25T10:51:08.812Z,27.52
2022-09-25T10:53:36.361Z,27.52
2022-09-25T10:56:15.122Z,26.88
2022-09-25T10:58:55.320Z,26.59
2022-09-25T11:01:35.783Z,26.10
2022-09-25T11:04:07.514Z,26.72
2022-09-25T11:06:35.781Z,27.04
2022-09-25T11:09:13.578Z,27.43
2022-09-25T11:11:41.705Z,27.47
2022-09-25T11:14:37.824Z,27.00
2022-09-25T11:17:27.160Z,27.02
2022-09-25T11:20:19.049Z,26.89
2022-09-25T11:23:26.389Z,27.22
2022-09-25T11:26:19.322Z,27.71
2022-09-25T11:29:04.798Z,26.51
2022-09-25T11:31:41.544Z,26.80
2022-09-25T11:34:14.837Z,27.46
2022-09-25T11:36:45.782Z,26.78
2022-09-25T11:39:41.395Z,26.82
2022-09-25T11:42:52.261Z,27.47
2022-09-25T11:45:32.472Z,26.18
2022-09-25T11:48:22.990Z,26.82
2022-09-25T11:51:01.636Z,26.68
2022-09-25T11:53:57.244Z,26.00
2022-09-25T11:56:39.871Z,26.43
2022-09-25T11:59:38.602Z,26.86
2022-09-25T12:02:39.051Z,28.37
2022-09-25T12:05:23.644Z,26.92
2022-09-25T12:08:17.206Z,27.70
2022-09-25T12:10:53.792Z,27.51
2022-09-25T12:13:45.061Z,27.12
2022-09-25T12:16:28.990Z,26.33
2022-09-25T12:19:03.068Z,26.50
2022-09-25T12:21:45.567Z,27.52
2022-09-25T12:24:13.849Z,27.46
2022-09-25T12:26:51.453Z,27.81
2022-09-25T12:29:29.698Z,27.33
2022-09-25T12:32:37.642Z,26.86
2022-09-25T12:35:24.123Z,28.66
2022-09-25T12:38:02.468Z,25.46
2022-09-25T12:40:39.234Z,24.82
2022-09-25T12:43:33.825Z,25.15
2022-09-25T12:46:15.971Z,26.65
2022-09-25T12:49:32.044Z,29.62
2022-09-25T12:52:05.801Z,30.44
2022-09-25T12:54:47.928Z,30.08
2022-09-25T12:57:32.171Z,30.49
2022-09-25T13:00:15.719Z,30.40
2022-09-25T13:03:09.238Z,30.28
2022-09-25T13:05:45.637Z,30.42
2022-09-25T13:08:20.808Z,29.66
2022-09-25T13:11:00.920Z,31.45
2022-09-25T13:13:38.142Z,31.22
2022-09-25T13:16:05.991Z,31.23
2022-09-25T13:18:35.944Z,31.35
2022-09-25T13:21:23.973Z,30.72
2022-09-25T13:23:54.443Z,30.56
2022-09-25T13:26:27.067Z,29.60
2022-09-25T13:29:07.981Z,29.15
2022-09-25T13:31:44.967Z,28.88
2022-09-25T13:34:16.271Z,29.18
2022-09-25T13:36:56.249Z,29.61
2022-09-25T13:39:47.138Z,28.83
2022-09-25T13:42:38.128Z,28.79
2022-09-25T13:45:25.223Z,29.40
2022-09-25T13:48:12.805Z,30.59
2022-09-25T13:50:43.331Z,30.29
2022-09-25T13:53:37.543Z,29.55
2022-09-25T13:56:12.874Z,29.75
2022-09-25T13:59:16.291Z,29.90
2022-09-25T14:01:47.935Z,29.65
2022-09-25T14:04:15.427Z,30.80
2022-09-25T14:06:45.029Z,31.30
2022-09-25T14:09:20.055Z,31.24
2022-09-25T14:11:56.528Z,32.28
2022-09-25T14:14:42.936Z,32.51
2022-09-25T14:17:16.880Z,32.58
2022-09-25T14:19:49.294Z,32.95
2022-09-25T14:22:30.504Z,32.29
2022-09-25T14:24:57.965Z,32.54
2022-09-25T14:27:28.279Z,31.67
2022-09-25T14:30:11.975Z,31.40
2022-09-25T14:32:55.696Z,31.66
2022-09-25T14:35:41.809Z,31.92
2022-09-25T14:38:31.942Z,31.80
2022-09-25T14:41:23.712Z,32.60
2022-09-25T14:44:18.065Z,33.08
2022-09-25T14:46:49.947Z,33.51
2022-09-25T14:49:39.646Z,32.58
2022-09-25T14:52:11.409Z,32.13
2022-09-25T14:54:43.403Z,32.56
2022-09-25T14:57:12.207Z,32.08
2022-09-25T14:59:52.852Z,31.80
2022-09-25T15:02:27.092Z,32.09
2022-09-25T15:04:58.789Z,32.15
2022-09-25T15:07:28.227Z,31.92
2022-09-25T15:09:56.439Z,31.22
2022-09-25T15:12:34.195Z,30.91
2022-09-25T15:15:12.058Z,32.03
2022-09-25T15:17:55.039Z,32.27
2022-09-25T15:20:27.023Z,32.60
2022-09-25T15:22:59.826Z,32.21
2022-09-25T15:25:40.563Z,32.90
2022-09-25T15:28:10.291Z,32.72
2022-09-25T15:30:42.125Z,33.18
2022-09-25T15:33:24.009Z,33.63
2022-09-25T15:35:59.652Z,33.42
2022-09-25T15:38:34.996Z,34.12
2022-09-25T15:41:03.798Z,34.29
2022-09-25T15:43:31.722Z,34.33
2022-09-25T15:46:19.241Z,34.97
2022-09-25T15:48:58.136Z,35.30
2022-09-25T15:51:30.861Z,35.75
2022-09-25T15:53:59.369Z,35.84
2022-09-25T15:56:29.835Z,36.18
2022-09-25T15:59:01.813Z,36.38
2022-09-25T16:01:53.968Z,36.57
2022-09-25T16:04:42.664Z,36.88
2022-09-25T16:07:32.310Z,37.41
2022-09-25T16:10:03.533Z,37.62
2022-09-25T16:12:42.838Z,37.99
2022-09-25T16:15:31.792Z,38.97
2022-09-25T16:18:05.713Z,38.68
2022-09-25T16:20:36.823Z,39.39
2022-09-25T16:23:07.400Z,39.60
2022-09-25T16:25:37.646Z,39.78
2022-09-25T16:28:29.162Z,40.61
2022-09-25T16:31:01.489Z,42.56
2022-09-25T16:33:52.062Z,43.20
2022-09-25T16:36:19.885Z,43.51
2022-09-25T16:39:23.560Z,44.17
2022-09-25T16:41:51.684Z,44.61
2022-09-25T16:44:20.571Z,45.06
2022-09-25T16:47:20.750Z,45.40
2022-09-25T16:49:49.740Z,45.85
2022-09-25T16:52:20.816Z,46.23
2022-09-25T16:54:53.309Z,46.13
2022-09-25T16:57:22.817Z,46.44
2022-09-25T16:59:50.707Z,46.75
2022-09-25T17:02:36.295Z,45.31
2022-09-25T17:05:17.984Z,45.11
2022-09-25T17:07:50.773Z,44.84
2022-09-25T17:10:23.855Z,44.37
2022-09-25T17:12:54.135Z,44.71
2022-09-25T17:15:23.800Z,46.29
2022-09-25T17:17:54.557Z,47.06
2022-09-25T17:20:26.759Z,47.59
2022-09-25T17:22:55.112Z,48.32
2022-09-25T17:25:45.231Z,48.37
2022-09-25T17:28:13.391Z,48.96
2022-09-25T17:30:45.362Z,48.92
2022-09-25T17:33:18.193Z,49.20
2022-09-25T17:35:53.593Z,49.90
2022-09-25T17:38:20.773Z,49.92
2022-09-25T17:40:52.529Z,50.40
2022-09-25T17:43:20.770Z,49.83
2022-09-25T17:45:51.172Z,50.53
2022-09-25T17:48:26.364Z,50.49
2022-09-25T17:51:00.360Z,50.81
2022-09-25T17:53:32.994Z,50.56
2022-09-25T17:56:01.735Z,50.37
2022-09-25T17:58:32.618Z,50.08
2022-09-25T18:01:01.989Z,50.85
2022-09-25T18:03:31.181Z,51.55
2022-09-25T18:06:01.973Z,52.04
2022-09-25T18:08:32.393Z,51.97
2022-09-25T18:11:00.010Z,51.70
2022-09-25T18:13:27.749Z,51.91
2022-09-25T18:16:02.295Z,52.08
2022-09-25T18:18:48.341Z,51.81
2022-09-25T18:21:34.664Z,52.27
2022-09-25T18:24:02.384Z,52.52
2022-09-25T18:26:31.576Z,52.77
2022-09-25T18:28:59.307Z,53.27
2022-09-25T18:31:27.062Z,53.35
2022-09-25T18:33:55.391Z,53.51
2022-09-25T18:36:23.234Z,53.81
2022-09-25T18:38:50.635Z,53.62
2022-09-25T18:41:18.112Z,53.53
2022-09-25T18:43:45.624Z,53.33
2022-09-25T18:46:13.436Z,53.80
2022-09-25T18:48:46.278Z,52.63
2022-09-25T18:51:14.541Z,52.11
2022-09-25T18:53:42.110Z,50.59
2022-09-25T18:56:09.872Z,50.29
2022-09-25T18:58:37.382Z,50.97
2022-09-25T19:01:07.789Z,51.08
2022-09-25T19:03:40.089Z,51.19
2022-09-25T19:06:10.675Z,51.18
2022-09-25T19:08:38.269Z,50.79
2022-09-25T19:11:14.181Z,51.02
2022-09-25T19:13:44.312Z,50.57
2022-09-25T19:16:11.859Z,50.60
2022-09-25T19:18:39.275Z,51.19
2022-09-25T19:21:07.039Z,51.27
2022-09-25T19:23:39.142Z,51.49
2022-09-25T19:26:06.722Z,51.21
2022-09-25T19:28:35.109Z,50.85
2022-09-25T19:31:06.148Z,50.50
2022-09-25T19:33:36.266Z,50.29
2022-09-25T19:36:07.751Z,51.04
2022-09-25T19:38:37.496Z,51.18
2022-09-25T19:41:13.065Z,51.50
2022-09-25T19:43:40.779Z,51.49
2022-09-25T19:46:08.723Z,52.18
2022-09-25T19:48:36.534Z,52.01
2022-09-25T19:51:08.300Z,52.20
2022-09-25T19:53:36.795Z,52.64
2022-09-25T19:56:04.264Z,52.86
2022-09-25T19:58:38.489Z,52.58
2022-09-25T20:01:14.560Z,52.33
2022-09-25T20:03:42.298Z,52.73
2022-09-25T20:06:12.182Z,52.37
2022-09-25T20:08:40.144Z,52.26
2022-09-25T20:11:22.248Z,52.06
2022-09-25T20:13:51.637Z,52.48
2022-09-25T20:16:25.423Z,53.33
2022-09-25T20:18:58.033Z,52.60
2022-09-25T20:21:27.159Z,51.85
2022-09-25T20:23:56.977Z,52.24
2022-09-25T20:26:25.496Z,52.43
2022-09-25T20:29:01.266Z,52.09
2022-09-25T20:31:31.126Z,51.89
2022-09-25T20:33:58.922Z,52.59
2022-09-25T20:36:26.465Z,52.55
2022-09-25T20:38:56.206Z,52.98
2022-09-25T20:41:25.356Z,53.63
2022-09-25T20:43:56.085Z,52.37
2022-09-25T20:46:24.683Z,51.90
2022-09-25T20:48:53.653Z,52.26
2022-09-25T20:51:27.321Z,52.13
2022-09-25T20:54:01.164Z,52.28
2022-09-25T20:56:32.281Z,52.42
2022-09-25T20:59:01.183Z,52.18
2022-09-25T21:01:32.028Z,51.94
2022-09-25T21:04:01.035Z,51.72
2022-09-25T21:06:32.807Z,51.64
2022-09-25T21:09:02.742Z,51.83
2022-09-25T21:11:31.966Z,52.12
2022-09-25T21:14:02.935Z,52.25
2022-09-25T21:16:32.821Z,52.13
2022-09-25T21:19:04.472Z,51.59
2022-09-25T21:21:33.524Z,51.56
2022-09-25T21:24:02.799Z,51.65
2022-09-25T21:26:31.798Z,51.51
2022-09-25T21:29:02.436Z,52.05
2022-09-25T21:31:36.904Z,51.69
2022-09-25T21:34:06.108Z,51.77
2022-09-25T21:36:33.867Z,52.03
2022-09-25T21:39:02.070Z,52.06
2022-09-25T21:41:30.650Z,52.12
2022-09-25T21:44:00.675Z,52.91
2022-09-25T21:46:29.243Z,52.76
2022-09-25T21:48:59.241Z,52.91
2022-09-25T21:51:29.808Z,52.65
2022-09-25T21:53:57.593Z,52.70
2022-09-25T21:56:30.216Z,52.70
2022-09-25T21:58:58.330Z,52.99
2022-09-25T22:01:28.397Z,52.98
2022-09-25T22:03:57.889Z,53.11
2022-09-25T22:06:35.337Z,53.07
2022-09-25T22:09:06.692Z,53.49
2022-09-25T22:11:35.009Z,53.41
2022-09-25T22:14:02.430Z,53.15
2022-09-25T22:16:32.941Z,52.82
2022-09-25T22:19:12.232Z,52.31
2022-09-25T22:21:40.520Z,52.49
2022-09-25T22:24:09.230Z,52.81
2022-09-25T22:26:38.660Z,52.84
2022-09-25T22:29:06.851Z,52.48
2022-09-25T22:31:36.401Z,52.57
2022-09-25T22:34:08.604Z,52.23
2022-09-25T22:36:36.716Z,52.27
2022-09-25T22:39:05.728Z,52.50
2022-09-25T22:41:33.671Z,52.72
2022-09-25T22:44:03.199Z,52.75
2022-09-25T22:46:31.131Z,52.63
2022-09-25T22:48:58.687Z,52.51
2022-09-25T22:51:26.577Z,52.38
2022-09-25T22:53:55.198Z,52.24
2022-09-25T22:56:28.605Z,52.23
2022-09-25T22:58:58.581Z,52.07
2022-09-25T23:01:38.761Z,52.12
2022-09-25T23:04:10.309Z,52.02
2022-09-25T23:06:38.748Z,52.04
2022-09-25T23:09:10.821Z,51.48
2022-09-25T23:11:38.360Z,51.26
2022-09-25T23:14:08.187Z,50.18
2022-09-25T23:16:35.998Z,50.59
2022-09-25T23:19:04.346Z,50.54
2022-09-25T23:21:32.468Z,50.80
2022-09-25T23:24:02.436Z,50.23
2022-09-25T23:26:30.371Z,50.25
2022-09-25T23:29:04.373Z,49.40
2022-09-25T23:31:33.173Z,49.49
2022-09-25T23:34:02.026Z,48.33
2022-09-25T23:36:30.551Z,48.16
2022-09-25T23:39:01.156Z,47.67
2022-09-25T23:41:31.709Z,46.44
2022-09-25T23:44:00.946Z,46.67
2022-09-25T23:46:31.287Z,46.75
2022-09-25T23:48:59.873Z,46.03
2022-09-25T23:51:27.801Z,45.45
2022-09-25T23:53:58.345Z,45.79
2022-09-25T23:56:29.607Z,45.56
2022-09-25T23:58:58.630Z,44.87
